Time;durP1;ratioP1;P1;durP2;ratioP2;P2;SDS_P1;SDS_P2;PMS_P1;PMS_P2;Temp;Humidity;BMP_temperature;BMP_pressure;BME280_temperature;BME280_humidity;BME280_pressure;Samples;Min_cycle;Max_cycle;Signal;HPM_P1;HPM_P2
2021/03/10 00:01:25;;;;;;;12.40;3.55;;;25.70;68.40;;;;;;5071413;28;20107;-54
2021/03/10 00:03:52;;;;;;;14.93;3.20;;;25.70;71.00;;;;;;5070782;28;20578;-55
2021/03/10 00:06:20;;;;;;;9.38;2.75;;;25.80;70.40;;;;;;5070025;28;20036;-56
2021/03/10 00:08:47;;;;;;;14.32;2.88;;;25.90;70.40;;;;;;5070990;28;20525;-55
2021/03/10 00:11:14;;;;;;;13.65;3.70;;;26.00;71.40;;;;;;5071304;28;20419;-57
2021/03/10 00:13:42;;;;;;;10.70;2.55;;;26.10;69.20;;;;;;5071604;28;20468;-59
2021/03/10 00:16:09;;;;;;;16.98;3.33;;;26.10;71.30;;;;;;5071517;28;20032;-57
2021/03/10 00:18:36;;;;;;;11.77;2.58;;;26.10;70.30;;;;;;5070932;28;20103;-58
2021/03/10 00:21:04;;;;;;;8.60;2.85;;;26.20;71.90;;;;;;5071301;28;20040;-58
2021/03/10 00:23:31;;;;;;;15.43;3.05;;;26.20;70.00;;;;;;5070011;28;20025;-52
2021/03/10 00:25:59;;;;;;;38.45;4.72;;;26.10;69.90;;;;;;5071629;28;20028;-58
2021/03/10 00:28:26;;;;;;;14.35;3.40;;;26.10;66.40;;;;;;5070838;28;20020;-61
2021/03/10 00:30:53;;;;;;;13.48;2.83;;;26.10;71.40;;;;;;5070716;28;20123;-61
2021/03/10 00:33:21;;;;;;;12.90;3.38;;;26.10;71.40;;;;;;5070034;28;20082;-57
2021/03/10 00:35:48;;;;;;;11.27;2.88;;;26.10;70.50;;;;;;5070746;28;20029;-49
2021/03/10 00:38:16;;;;;;;12.88;2.58;;;26.10;70.80;;;;;;5071040;28;20554;-57
2021/03/10 00:40:43;;;;;;;12.60;3.13;;;26.10;66.90;;;;;;5069510;28;20032;-51
2021/03/10 00:43:10;;;;;;;11.52;2.90;;;26.10;70.60;;;;;;5070978;28;20153;-57
2021/03/10 00:45:38;;;;;;;14.43;3.25;;;26.10;67.60;;;;;;5069782;28;20078;-55
2021/03/10 00:48:05;;;;;;;17.00;3.10;;;26.10;72.10;;;;;;5070682;28;20028;-55
2021/03/10 00:50:33;;;;;;;14.60;3.20;;;26.00;69.70;;;;;;5070648;28;20394;-54
2021/03/10 00:53:00;;;;;;;11.20;2.65;;;26.10;71.80;;;;;;5070819;28;20131;-53
2021/03/10 00:55:28;;;;;;;16.85;2.88;;;26.10;72.80;;;;;;5070574;28;20039;-56
2021/03/10 00:57:55;;;;;;;11.63;3.03;;;26.10;72.50;;;;;;5070833;28;20104;-57
2021/03/10 01:00:23;;;;;;;10.23;2.95;;;26.20;71.50;;;;;;5070438;28;20028;-58
2021/03/10 01:02:50;;;;;;;14.25;3.30;;;26.20;70.40;;;;;;5071909;28;20048;-61
2021/03/10 01:05:17;;;;;;;13.43;3.28;;;26.30;70.50;;;;;;5074310;28;20052;-59
2021/03/10 01:07:45;;;;;;;12.20;3.63;;;26.20;72.00;;;;;;5073573;28;20093;-60
2021/03/10 01:10:13;;;;;;;13.82;2.63;;;26.20;72.30;;;;;;5074416;28;20036;-57
2021/03/10 01:12:41;;;;;;;8.90;2.83;;;26.10;73.50;;;;;;5074153;28;20020;-61
2021/03/10 01:15:11;;;;;;;10.07;2.63;;;26.10;72.10;;;;;;5074648;28;20028;-64
2021/03/10 01:17:39;;;;;;;8.18;2.38;;;26.10;72.80;;;;;;5067278;28;20024;-59
2021/03/10 01:20:13;;;;;;;9.63;3.08;;;26.10;73.50;;;;;;5072426;28;20111;-57
2021/03/10 01:22:40;;;;;;;9.82;2.60;;;26.10;72.90;;;;;;5071485;28;20017;-57
2021/03/10 01:25:09;;;;;;;10.43;2.28;;;26.10;73.50;;;;;;5072447;28;20032;-64
2021/03/10 01:27:37;;;;;;;8.48;3.22;;;26.10;72.70;;;;;;5070256;28;20017;-62
2021/03/10 01:30:06;;;;;;;8.85;2.80;;;26.20;72.40;;;;;;5070991;28;20070;-66
2021/03/10 01:32:34;;;;;;;9.43;2.83;;;26.20;71.20;;;;;;5071698;28;20033;-70
2021/03/10 01:35:02;;;;;;;8.43;2.60;;;26.20;71.50;;;;;;5071754;28;20040;-73
2021/03/10 01:37:29;;;;;;;15.48;2.83;;;26.20;72.60;;;;;;5067580;28;20048;-54
2021/03/10 01:39:58;;;;;;;9.80;2.40;;;26.30;72.00;;;;;;5071250;28;20032;-55
2021/03/10 01:42:26;;;;;;;6.22;2.30;;;26.30;72.20;;;;;;5071288;28;20024;-60
2021/03/10 01:44:53;;;;;;;10.05;2.50;;;26.20;72.30;;;;;;5069905;28;20060;-55
2021/03/10 01:47:21;;;;;;;10.70;2.17;;;26.30;71.50;;;;;;5066915;28;20115;-57
2021/03/10 01:49:48;;;;;;;15.60;3.42;;;26.30;72.20;;;;;;5071094;28;20033;-54
2021/03/10 01:52:17;;;;;;;12.05;2.97;;;26.20;72.20;;;;;;5070989;28;20069;-60
2021/03/10 01:54:45;;;;;;;12.80;2.60;;;26.20;70.70;;;;;;5070876;28;20063;-56
2021/03/10 01:57:12;;;;;;;8.20;2.03;;;26.20;70.30;;;;;;5067903;28;20452;-60
2021/03/10 01:59:41;;;;;;;8.68;3.28;;;26.20;70.10;;;;;;5071051;28;20043;-61
2021/03/10 02:02:08;;;;;;;23.30;4.00;;;26.30;72.70;;;;;;5071299;28;20028;-61
2021/03/10 02:04:38;;;;;;;12.57;2.85;;;26.30;67.20;;;;;;5070497;28;20470;-53
2021/03/10 02:07:24;;;;;;;11.45;3.70;;;26.20;70.30;;;;;;5067098;28;20033;-55
2021/03/10 02:09:57;;;;;;;16.83;5.70;;;26.60;70.70;;;;;;5069126;28;20475;-55
2021/03/10 02:12:46;;;;;;;11.73;5.25;;;26.50;70.20;;;;;;5073388;28;20069;-56
2021/03/10 02:15:21;;;;;;;15.88;5.93;;;26.40;66.80;;;;;;5069158;28;20487;-57
2021/03/10 02:17:57;;;;;;;15.95;8.27;;;26.30;67.20;;;;;;5064778;28;20397;-58
2021/03/10 02:20:30;;;;;;;20.63;5.38;;;26.40;70.60;;;;;;5070961;28;20029;-52
2021/03/10 02:23:34;;;;;;;11.73;5.15;;;26.40;70.00;;;;;;5070683;28;20562;-54
2021/03/10 02:26:28;;;;;;;11.82;7.10;;;26.40;70.00;;;;;;5065644;28;20036;-61
2021/03/10 02:29:01;;;;;;;15.10;7.57;;;26.40;71.40;;;;;;5070387;28;20025;-53
2021/03/10 02:31:30;;;;;;;13.77;5.35;;;26.40;68.80;;;;;;5071147;28;20039;-57
2021/03/10 02:34:00;;;;;;;22.58;7.53;;;26.40;66.60;;;;;;5068816;28;20688;-56
2021/03/10 02:36:28;;;;;;;16.70;9.05;;;26.40;67.30;;;;;;5069890;28;20029;-61
2021/03/10 02:39:01;;;;;;;13.15;7.60;;;26.20;71.70;;;;;;5070606;28;20025;-64
2021/03/10 02:41:31;;;;;;;16.13;10.73;;;26.30;72.30;;;;;;5066866;28;20027;-57
2021/03/10 02:44:02;;;;;;;14.55;10.40;;;26.30;71.50;;;;;;5070823;28;20035;-58
2021/03/10 02:46:31;;;;;;;22.33;7.07;;;26.40;72.00;;;;;;5069649;28;20039;-55
2021/03/10 02:48:59;;;;;;;17.35;8.18;;;26.40;68.60;;;;;;5070019;28;20406;-57
2021/03/10 02:51:27;;;;;;;14.07;3.88;;;26.40;71.30;;;;;;5065634;28;20442;-59
2021/03/10 02:53:56;;;;;;;14.30;8.52;;;26.40;68.50;;;;;;5070218;28;20017;-63
2021/03/10 02:56:23;;;;;;;15.10;6.93;;;26.50;70.50;;;;;;5068141;28;20386;-65
2021/03/10 02:58:51;;;;;;;17.02;5.85;;;26.50;70.60;;;;;;5069216;28;20074;-62
2021/03/10 03:01:19;;;;;;;15.30;7.50;;;26.40;67.70;;;;;;5065386;28;20359;-54
2021/03/10 03:03:46;;;;;;;14.88;4.03;;;26.20;69.90;;;;;;5069286;28;20104;-57
2021/03/10 03:06:16;;;;;;;14.30;6.07;;;26.20;69.30;;;;;;5069048;28;20548;-58
2021/03/10 03:08:44;;;;;;;13.60;5.47;;;26.10;70.50;;;;;;5067463;28;20376;-53
2021/03/10 03:11:14;;;;;;;23.13;7.70;;;26.10;69.20;;;;;;5066263;28;20432;-62
2021/03/10 03:13:42;;;;;;;21.30;8.65;;;26.30;70.50;;;;;;5070152;28;20024;-68
2021/03/10 03:16:12;;;;;;;17.95;7.72;;;26.30;71.20;;;;;;5068837;28;20379;-63
2021/03/10 03:18:40;;;;;;;16.27;6.55;;;26.40;71.40;;;;;;5087674;28;20099;-65
2021/03/10 03:21:07;;;;;;;10.90;5.88;;;26.40;71.00;;;;;;5090340;28;20086;-68
2021/03/10 03:23:36;;;;;;;14.50;7.05;;;26.50;71.30;;;;;;5088625;28;20069;-66
2021/03/10 03:26:03;;;;;;;20.05;6.13;;;26.60;70.60;;;;;;5083057;28;20020;-56
2021/03/10 03:28:31;;;;;;;10.55;4.65;;;26.60;71.00;;;;;;5070087;28;20024;-65
2021/03/10 03:30:59;;;;;;;19.40;5.88;;;26.70;69.60;;;;;;5069991;28;20040;-59
2021/03/10 03:33:29;;;;;;;16.63;4.63;;;26.80;70.00;;;;;;5070167;28;20023;-64
2021/03/10 03:35:58;;;;;;;14.30;4.78;;;26.90;69.30;;;;;;5071919;28;20024;-64
2021/03/10 03:38:28;;;;;;;12.07;5.47;;;27.00;68.50;;;;;;5071790;28;20159;-59
2021/03/10 03:40:57;;;;;;;12.75;4.75;;;27.00;69.00;;;;;;5072058;28;20017;-57
2021/03/10 03:43:28;;;;;;;18.60;5.30;;;27.10;67.50;;;;;;5071444;28;20028;-69
2021/03/10 03:45:56;;;;;;;16.70;5.70;;;27.10;68.70;;;;;;5071033;28;20027;-63
2021/03/10 03:48:24;;;;;;;11.23;5.00;;;27.10;69.20;;;;;;5071639;28;20028;-59
2021/03/10 03:50:51;;;;;;;15.00;5.45;;;27.00;69.40;;;;;;5070367;28;20040;-61
2021/03/10 03:53:19;;;;;;;10.48;4.43;;;27.00;69.40;;;;;;5070146;28;20348;-57
2021/03/10 03:55:47;;;;;;;9.27;4.15;;;27.00;68.80;;;;;;5071243;28;20428;-53
2021/03/10 03:58:15;;;;;;;15.65;4.28;;;27.00;69.10;;;;;;5071195;28;20470;-59
2021/03/10 04:00:42;;;;;;;13.27;4.88;;;27.00;69.60;;;;;;5071619;28;20031;-59
2021/03/10 04:03:09;;;;;;;10.52;4.75;;;27.00;69.60;;;;;;5071405;28;20028;-63
2021/03/10 04:05:37;;;;;;;12.02;4.70;;;26.90;70.00;;;;;;5070816;28;20445;-58
2021/03/10 04:08:04;;;;;;;16.02;4.88;;;26.90;69.50;;;;;;5071428;28;20024;-55
2021/03/10 04:10:34;;;;;;;9.52;4.13;;;26.90;70.30;;;;;;5071149;28;20067;-59
2021/03/10 04:13:02;;;;;;;11.27;4.43;;;26.90;70.30;;;;;;5071330;28;20081;-60
2021/03/10 04:15:32;;;;;;;13.05;4.65;;;26.90;69.00;;;;;;5070325;28;20036;-58
2021/03/10 04:17:59;;;;;;;19.85;5.70;;;26.90;70.00;;;;;;5071192;28;20366;-57
2021/03/10 04:20:27;;;;;;;11.10;4.60;;;26.80;70.40;;;;;;5071178;28;20028;-59
2021/03/10 04:22:54;;;;;;;10.05;4.32;;;26.80;69.90;;;;;;5071181;28;20021;-60
2021/03/10 04:25:22;;;;;;;16.40;4.45;;;26.90;70.00;;;;;;5071275;28;20056;-54
2021/03/10 04:27:49;;;;;;;10.82;4.05;;;26.80;69.50;;;;;;5071571;28;20054;-53
2021/03/10 04:30:17;;;;;;;7.65;4.40;;;26.80;69.20;;;;;;5071052;28;20044;-63
2021/03/10 04:32:45;;;;;;;7.45;3.28;;;26.80;70.40;;;;;;5071064;28;20020;-56
2021/03/10 04:35:12;;;;;;;8.30;3.80;;;26.80;68.50;;;;;;5070765;28;20027;-60
2021/03/10 04:37:40;;;;;;;12.82;4.40;;;26.70;69.60;;;;;;5071057;28;20024;-58
2021/03/10 04:40:09;;;;;;;11.55;4.00;;;26.70;70.80;;;;;;5075094;28;20394;-54
2021/03/10 04:42:37;;;;;;;9.20;3.65;;;26.70;71.20;;;;;;5074904;28;20017;-53
2021/03/10 04:45:07;;;;;;;9.88;3.80;;;26.70;70.90;;;;;;5074808;28;20033;-51
2021/03/10 04:47:35;;;;;;;8.13;3.10;;;26.70;70.90;;;;;;5074850;28;20025;-55
2021/03/10 04:50:07;;;;;;;13.93;3.72;;;26.70;70.60;;;;;;5074948;28;20032;-51
2021/03/10 04:52:34;;;;;;;7.72;3.33;;;26.70;70.40;;;;;;5074109;28;20017;-49
2021/03/10 04:55:03;;;;;;;9.60;3.20;;;26.70;71.70;;;;;;5074484;28;20028;-55
2021/03/10 04:57:31;;;;;;;9.10;3.95;;;26.70;70.70;;;;;;5074766;28;20079;-54
2021/03/10 04:59:58;;;;;;;9.18;3.78;;;26.60;71.50;;;;;;5074938;28;20092;-52
2021/03/10 05:02:26;;;;;;;7.22;3.55;;;26.60;71.80;;;;;;5075238;28;20035;-53
2021/03/10 05:04:53;;;;;;;7.63;4.03;;;26.70;70.90;;;;;;5074624;28;20045;-55
2021/03/10 05:07:21;;;;;;;10.25;4.13;;;26.60;71.00;;;;;;5074922;28;20028;-58
2021/03/10 05:09:49;;;;;;;6.88;3.13;;;26.60;71.80;;;;;;5074940;28;20078;-59
2021/03/10 05:12:17;;;;;;;11.02;3.60;;;26.70;69.40;;;;;;5074442;28;20037;-57
2021/03/10 05:14:45;;;;;;;11.27;3.50;;;26.60;71.60;;;;;;5061634;28;20020;-54
2021/03/10 05:17:13;;;;;;;10.30;2.95;;;26.60;70.20;;;;;;5070532;28;20016;-64
2021/03/10 05:19:40;;;;;;;10.43;3.00;;;26.60;71.10;;;;;;5071604;28;20033;-67
2021/03/10 05:22:08;;;;;;;7.60;3.22;;;26.60;72.00;;;;;;5072224;28;20028;-59
2021/03/10 05:24:35;;;;;;;11.60;3.28;;;26.60;71.00;;;;;;5071164;28;20104;-66
2021/03/10 05:27:03;;;;;;;7.63;3.00;;;26.60;71.40;;;;;;5068692;28;20033;-68
2021/03/10 05:29:30;;;;;;;9.80;2.88;;;26.60;71.00;;;;;;5072254;28;20082;-61
2021/03/10 05:32:29;;;;;;;8.73;2.72;;;26.60;70.60;;;;;;5072613;28;20028;-57
2021/03/10 05:34:57;;;;;;;10.77;3.15;;;26.60;71.80;;;;;;5054230;28;20033;-55
2021/03/10 05:37:24;;;;;;;12.50;3.50;;;26.60;70.50;;;;;;5070287;28;20029;-64
2021/03/10 05:39:52;;;;;;;11.55;3.20;;;26.70;71.50;;;;;;5072439;28;20036;-55
2021/03/10 05:42:20;;;;;;;10.55;2.92;;;26.70;70.10;;;;;;5067915;28;20090;-58
2021/03/10 05:44:50;;;;;;;8.15;2.85;;;26.70;70.00;;;;;;5074276;28;20157;-61
2021/03/10 05:47:21;;;;;;;7.93;2.78;;;26.70;69.80;;;;;;5074033;28;20541;-61
2021/03/10 05:49:49;;;;;;;13.65;2.70;;;26.60;69.80;;;;;;5073428;28;20036;-54
2021/03/10 05:52:17;;;;;;;7.90;2.75;;;26.60;69.70;;;;;;5073872;28;20037;-57
2021/03/10 05:54:45;;;;;;;7.88;2.80;;;26.60;69.30;;;;;;5074023;28;20085;-63
2021/03/10 05:57:13;;;;;;;11.88;3.60;;;26.60;70.40;;;;;;5073727;28;20043;-55
2021/03/10 05:59:40;;;;;;;14.18;3.65;;;26.60;69.60;;;;;;5073957;28;20056;-61
2021/03/10 06:02:08;;;;;;;9.98;2.45;;;26.60;70.30;;;;;;5072953;28;20351;-57
2021/03/10 06:04:42;;;;;;;7.05;2.20;;;26.60;70.10;;;;;;5072768;28;20096;-59
2021/03/10 06:07:39;;;;;;;14.35;2.90;;;26.50;69.80;;;;;;5073193;28;20020;-57
2021/03/10 06:10:07;;;;;;;13.85;2.88;;;26.50;70.20;;;;;;5046446;28;20170;-60
2021/03/10 06:12:45;;;;;;;10.13;2.80;;;26.60;70.20;;;;;;5073487;28;20020;-58
2021/03/10 06:15:14;;;;;;;11.77;2.80;;;26.60;70.10;;;;;;5073594;28;20025;-52
2021/03/10 06:17:45;;;;;;;10.90;2.40;;;26.60;70.50;;;;;;5073604;28;20028;-51
2021/03/10 06:20:27;;;;;;;13.98;2.58;;;26.60;70.30;;;;;;5073577;28;20049;-60
2021/03/10 06:22:55;;;;;;;8.75;2.40;;;26.60;71.30;;;;;;5073169;28;20025;-59
2021/03/10 06:25:25;;;;;;;17.55;3.13;;;26.60;70.90;;;;;;5072373;28;20033;-52
2021/03/10 06:28:00;;;;;;;12.55;3.42;;;26.60;70.70;;;;;;5071656;28;20349;-53
2021/03/10 06:30:45;;;;;;;9.15;2.47;;;26.60;70.70;;;;;;5072214;28;20371;-53
2021/03/10 06:33:23;;;;;;;12.82;3.05;;;26.50;69.70;;;;;;5072753;28;20067;-55
2021/03/10 06:35:51;;;;;;;13.40;2.83;;;26.50;68.80;;;;;;5072202;28;20050;-55
2021/03/10 06:38:20;;;;;;;10.00;2.65;;;26.50;70.80;;;;;;5072758;28;20459;-57
2021/03/10 06:40:56;;;;;;;14.95;2.58;;;26.50;70.60;;;;;;5073177;28;20043;-53
2021/03/10 06:43:41;;;;;;;14.35;2.72;;;26.40;69.40;;;;;;5072799;28;20072;-58
2021/03/10 06:46:18;;;;;;;20.92;3.35;;;26.40;71.10;;;;;;5072385;28;20020;-56
2021/03/10 06:49:04;;;;;;;12.73;3.10;;;26.50;71.50;;;;;;5073011;28;20020;-53
2021/03/10 06:51:32;;;;;;;22.15;2.97;;;26.40;71.80;;;;;;5072245;28;20047;-59
2021/03/10 06:54:00;;;;;;;14.90;3.88;;;26.40;72.00;;;;;;5072490;28;20027;-56
2021/03/10 06:56:30;;;;;;;18.20;3.05;;;26.40;70.70;;;;;;5072469;28;20028;-53
2021/03/10 06:59:01;;;;;;;11.20;2.90;;;26.40;71.90;;;;;;5072808;28;20020;-57
2021/03/10 07:01:36;;;;;;;;;;;26.40;71.00;;;;;;5071260;28;20024;-57
2021/03/10 07:04:04;;;;;;;13.45;2.60;;;26.40;71.60;;;;;;5072045;28;19970;-61
2021/03/10 07:06:33;;;;;;;17.00;3.10;;;26.40;71.40;;;;;;5071863;28;20108;-62
2021/03/10 07:09:02;;;;;;;22.23;3.08;;;26.40;71.90;;;;;;5071892;28;20107;-60
2021/03/10 07:11:29;;;;;;;18.05;3.17;;;26.50;72.20;;;;;;5072317;28;20111;-57
2021/03/10 07:13:57;;;;;;;10.90;2.47;;;26.40;70.80;;;;;;5072261;28;20028;-59
2021/03/10 07:16:26;;;;;;;17.73;3.92;;;26.20;70.20;;;;;;5072209;28;20024;-61
2021/03/10 07:18:54;;;;;;;23.30;4.00;;;26.20;70.30;;;;;;5070800;28;20055;-60
2021/03/10 07:21:33;;;;;;;22.30;5.68;;;26.10;69.60;;;;;;5071461;28;20023;-51
2021/03/10 07:24:03;;;;;;;15.25;3.65;;;26.10;70.70;;;;;;5071735;28;20086;-61
2021/03/10 07:26:31;;;;;;;13.70;4.03;;;26.10;70.80;;;;;;5071817;28;20356;-62
2021/03/10 07:29:05;;;;;;;26.50;4.47;;;26.10;70.30;;;;;;5070614;28;20028;-53
2021/03/10 07:31:33;;;;;;;12.90;3.28;;;26.00;70.80;;;;;;5070981;28;20041;-56
2021/03/10 07:34:01;;;;;;;14.93;4.07;;;25.90;70.20;;;;;;5064319;28;20142;-57
2021/03/10 07:36:46;;;;;;;16.00;3.90;;;26.00;71.50;;;;;;5071666;28;20032;-53
2021/03/10 07:39:25;;;;;;;14.65;5.15;;;25.90;70.10;;;;;;5051788;28;20021;-56
2021/03/10 07:41:53;;;;;;;19.00;6.53;;;25.70;69.50;;;;;;5068963;28;20032;-55
2021/03/10 07:44:23;;;;;;;24.38;7.43;;;25.80;71.60;;;;;;5071710;28;20474;-58
2021/03/10 07:47:03;;;;;;;26.08;7.68;;;25.70;72.60;;;;;;5071843;28;20028;-56
2021/03/10 07:49:31;;;;;;;41.67;12.65;;;25.70;72.90;;;;;;5071085;28;20020;-48
2021/03/10 07:52:12;;;;;;;31.88;12.18;;;25.80;74.60;;;;;;5071077;28;20044;-53
2021/03/10 07:54:42;;;;;;;24.70;9.33;;;25.90;75.90;;;;;;5071501;28;20099;-51
2021/03/10 07:57:13;;;;;;;22.52;12.48;;;25.80;74.20;;;;;;5071619;28;20293;-53
2021/03/10 07:59:57;;;;;;;24.42;12.70;;;25.80;77.30;;;;;;5071683;28;20471;-51
2021/03/10 08:02:26;;;;;;;25.35;11.15;;;25.80;74.50;;;;;;5071679;28;20459;-49
2021/03/10 08:05:02;;;;;;;24.58;11.30;;;25.90;76.80;;;;;;5070911;28;20044;-47
2021/03/10 08:07:32;;;;;;;22.88;12.35;;;25.90;78.40;;;;;;5071523;28;20059;-45
2021/03/10 08:10:00;;;;;;;21.45;12.52;;;26.00;78.50;;;;;;5071073;28;20033;-57
2021/03/10 08:12:35;;;;;;;19.13;10.88;;;26.00;77.60;;;;;;5074452;28;20029;-56
2021/03/10 08:15:04;;;;;;;18.17;16.08;;;26.00;77.10;;;;;;5058044;28;20045;-60
2021/03/10 08:17:32;;;;;;;20.08;11.98;;;26.00;76.20;;;;;;5077028;28;20110;-55
2021/03/10 08:20:05;;;;;;;15.40;10.35;;;26.00;76.50;;;;;;5078228;28;20522;-61
2021/03/10 08:22:34;;;;;;;17.50;10.73;;;26.00;78.10;;;;;;5078605;28;20443;-63
2021/03/10 08:25:03;;;;;;;19.73;12.80;;;26.00;77.80;;;;;;5078339;28;20411;-69
2021/03/10 08:27:35;;;;;;;16.08;9.30;;;26.00;78.10;;;;;;5078303;28;20059;-62
2021/03/10 08:30:03;;;;;;;;;;;26.10;80.60;;;;;;5078924;28;20148;-52
2021/03/10 08:32:31;;;;;;;23.52;9.20;;;26.10;80.30;;;;;;5098248;28;19908;-55
2021/03/10 08:35:11;;;;;;;23.00;8.57;;;26.10;81.40;;;;;;5072729;28;20038;-48
2021/03/10 08:37:55;;;;;;;22.35;6.95;;;26.10;81.90;;;;;;5057115;28;20044;-57
2021/03/10 08:40:25;;;;;;;13.98;6.10;;;26.00;78.70;;;;;;5056750;28;20032;-51
2021/03/10 08:42:58;;;;;;;19.27;5.43;;;26.00;77.70;;;;;;5057852;28;20059;-54
2021/03/10 08:45:25;;;;;;;19.10;4.97;;;25.90;76.90;;;;;;5068170;28;20158;-53
2021/03/10 08:48:03;;;;;;;14.45;3.78;;;25.90;76.10;;;;;;5077731;28;20031;-61
2021/03/10 08:50:39;;;;;;;17.25;4.70;;;25.90;75.80;;;;;;5078260;28;20033;-60
2021/03/10 08:53:08;;;;;;;19.48;3.60;;;25.90;74.60;;;;;;5078069;28;20024;-56
2021/03/10 08:55:36;;;;;;;13.32;4.20;;;25.80;74.10;;;;;;5077862;28;20024;-55
2021/03/10 08:58:14;;;;;;;17.10;4.80;;;25.80;75.00;;;;;;5077722;28;20044;-58
2021/03/10 09:00:43;;;;;;;16.48;4.00;;;25.80;76.00;;;;;;5077970;28;20036;-51
2021/03/10 09:03:15;;;;;;;16.60;3.45;;;25.80;76.70;;;;;;5078227;28;20024;-61
2021/03/10 09:05:44;;;;;;;15.77;4.40;;;25.80;77.00;;;;;;5077571;28;20047;-55
2021/03/10 09:08:13;;;;;;;12.00;3.78;;;25.80;76.60;;;;;;5077670;28;20063;-60
2021/03/10 09:10:47;;;;;;;14.95;3.55;;;25.70;76.70;;;;;;5078168;28;20063;-63
2021/03/10 09:13:15;;;;;;;11.80;3.83;;;25.70;75.20;;;;;;5078144;28;20012;-55
2021/03/10 09:15:42;;;;;;;16.20;3.63;;;25.70;77.50;;;;;;5077580;28;20020;-61
2021/03/10 09:18:09;;;;;;;14.25;3.30;;;25.80;77.10;;;;;;5076805;28;20029;-59
2021/03/10 09:20:43;;;;;;;17.27;3.92;;;25.80;77.00;;;;;;5078150;28;20467;-63
2021/03/10 09:23:11;;;;;;;13.80;3.95;;;25.80;77.30;;;;;;5077111;28;20024;-65
2021/03/10 09:25:42;;;;;;;18.88;4.45;;;25.80;77.20;;;;;;5074289;28;20036;-49
2021/03/10 09:28:11;;;;;;;23.00;4.00;;;25.80;77.60;;;;;;5074168;28;20140;-50
2021/03/10 09:30:47;;;;;;;22.92;4.55;;;25.80;78.80;;;;;;5074090;28;20379;-50
2021/03/10 09:33:26;;;;;;;12.65;3.85;;;25.90;78.60;;;;;;5059502;28;20361;-48
2021/03/10 09:35:58;;;;;;;15.48;4.28;;;25.80;78.60;;;;;;5068386;28;20116;-53
2021/03/10 09:38:34;;;;;;;16.33;3.88;;;25.80;78.90;;;;;;5058251;28;20079;-56
2021/03/10 09:41:03;;;;;;;11.88;3.85;;;25.80;79.10;;;;;;5054221;28;20056;-51
2021/03/10 09:43:33;;;;;;;13.75;3.78;;;25.70;78.20;;;;;;5053825;28;20519;-63
2021/03/10 09:46:06;;;;;;;10.52;3.95;;;25.70;79.20;;;;;;5052438;28;20029;-61
2021/03/10 09:48:40;;;;;;;10.45;3.38;;;25.70;78.90;;;;;;5068687;28;20056;-53
2021/03/10 09:51:12;;;;;;;12.27;3.63;;;25.70;79.00;;;;;;5072165;28;20169;-58
2021/03/10 09:53:45;;;;;;;12.45;3.35;;;25.60;79.20;;;;;;5072426;28;20029;-49
2021/03/10 09:56:18;;;;;;;8.80;3.47;;;25.60;79.20;;;;;;5071886;28;20056;-63
2021/03/10 09:58:54;;;;;;;19.65;4.18;;;25.60;79.40;;;;;;5072299;28;20032;-59
2021/03/10 10:01:24;;;;;;;11.27;3.22;;;25.50;79.60;;;;;;5073816;28;20017;-70
2021/03/10 10:03:53;;;;;;;12.93;3.33;;;25.60;79.70;;;;;;5073834;28;20077;-66
2021/03/10 10:06:22;;;;;;;10.68;3.75;;;25.50;79.70;;;;;;5074108;28;20036;-54
2021/03/10 10:08:53;;;;;;;10.50;2.85;;;25.50;79.90;;;;;;5074840;28;20020;-68
2021/03/10 10:11:21;;;;;;;10.85;3.28;;;25.50;80.40;;;;;;5073775;28;20044;-62
2021/03/10 10:13:50;;;;;;;11.20;4.15;;;25.50;80.10;;;;;;5073771;28;20032;-52
2021/03/10 10:16:18;;;;;;;9.18;3.17;;;25.50;79.30;;;;;;5073762;28;20482;-65
2021/03/10 10:18:48;;;;;;;12.90;3.40;;;25.40;78.90;;;;;;5073597;28;20048;-63
2021/03/10 10:21:17;;;;;;;12.95;3.28;;;25.40;78.90;;;;;;5072767;28;20024;-62
2021/03/10 10:23:45;;;;;;;8.48;3.35;;;25.40;79.70;;;;;;5073367;28;20383;-69
2021/03/10 10:26:12;;;;;;;11.43;3.67;;;25.40;79.80;;;;;;5073175;28;20047;-56
2021/03/10 10:28:40;;;;;;;7.68;2.75;;;25.40;80.10;;;;;;5072776;28;20401;-64
2021/03/10 10:31:07;;;;;;;10.25;2.92;;;25.30;79.30;;;;;;5073283;28;20062;-59
2021/03/10 10:33:34;;;;;;;11.25;3.58;;;25.30;78.80;;;;;;5073263;28;20463;-61
2021/03/10 10:36:02;;;;;;;7.03;3.33;;;25.30;78.60;;;;;;5071628;28;20032;-58
2021/03/10 10:38:29;;;;;;;10.70;3.67;;;25.20;78.50;;;;;;5061703;28;20116;-58
2021/03/10 10:40:56;;;;;;;12.07;3.30;;;25.20;78.90;;;;;;5068391;28;20395;-58
2021/03/10 10:43:24;;;;;;;9.18;3.08;;;25.20;78.90;;;;;;5069462;28;20031;-54
2021/03/10 10:45:51;;;;;;;11.85;2.95;;;25.20;78.80;;;;;;5068506;28;20097;-68
2021/03/10 10:48:18;;;;;;;11.45;3.58;;;25.20;78.60;;;;;;5069931;28;20111;-55
2021/03/10 10:50:46;;;;;;;8.18;2.47;;;25.20;78.60;;;;;;5064118;28;20041;-61
2021/03/10 10:53:13;;;;;;;9.30;2.90;;;25.20;78.70;;;;;;5067514;28;20030;-58
2021/03/10 10:55:40;;;;;;;7.10;2.92;;;25.20;78.30;;;;;;5069985;28;20021;-59
2021/03/10 10:58:08;;;;;;;13.40;2.65;;;25.10;78.40;;;;;;5067947;28;20028;-58
2021/03/10 11:00:35;;;;;;;7.38;2.90;;;25.10;78.40;;;;;;5064236;28;20143;-59
2021/03/10 11:03:03;;;;;;;7.03;3.03;;;25.10;78.30;;;;;;5070163;28;20024;-56
2021/03/10 11:05:30;;;;;;;8.98;2.60;;;25.10;78.10;;;;;;5068757;28;20125;-64
2021/03/10 11:07:57;;;;;;;7.03;3.33;;;25.10;78.30;;;;;;5067806;28;20028;-69
2021/03/10 11:10:25;;;;;;;9.13;2.80;;;25.10;78.20;;;;;;5065962;28;20033;-54
2021/03/10 11:12:53;;;;;;;7.30;2.50;;;25.10;78.30;;;;;;5065726;28;20524;-57
2021/03/10 11:15:20;;;;;;;10.10;2.83;;;25.00;78.10;;;;;;5070022;28;20070;-63
2021/03/10 11:17:48;;;;;;;6.00;2.55;;;25.00;78.20;;;;;;5069593;28;20036;-56
2021/03/10 11:20:16;;;;;;;5.90;2.60;;;25.10;78.00;;;;;;5068183;28;20020;-51
2021/03/10 11:22:43;;;;;;;8.60;2.30;;;25.10;78.10;;;;;;5066511;28;20738;-56
2021/03/10 11:25:12;;;;;;;8.48;2.55;;;25.00;78.00;;;;;;5070421;28;20056;-53
2021/03/10 11:27:39;;;;;;;7.45;2.45;;;25.00;78.00;;;;;;5070687;28;20142;-61
2021/03/10 11:30:08;;;;;;;5.47;2.60;;;25.00;77.70;;;;;;5069309;28;20082;-65
2021/03/10 11:32:36;;;;;;;13.52;3.10;;;25.00;77.50;;;;;;5068825;28;20056;-64
2021/03/10 11:35:06;;;;;;;8.65;2.10;;;25.00;77.50;;;;;;5069953;28;20028;-53
2021/03/10 11:37:34;;;;;;;9.15;2.42;;;25.00;77.70;;;;;;5068970;28;20063;-54
2021/03/10 11:40:03;;;;;;;10.57;3.05;;;25.00;78.10;;;;;;5069686;28;20040;-52
2021/03/10 11:42:30;;;;;;;11.05;3.20;;;24.90;78.10;;;;;;5066051;28;20031;-54
2021/03/10 11:44:58;;;;;;;9.18;2.20;;;25.00;78.10;;;;;;5068673;28;20457;-54
2021/03/10 11:47:25;;;;;;;11.65;2.80;;;25.00;78.20;;;;;;5068606;28;20051;-50
2021/03/10 11:49:53;;;;;;;12.05;2.72;;;24.90;78.10;;;;;;5069702;28;20029;-57
2021/03/10 11:52:20;;;;;;;11.20;2.85;;;25.00;78.20;;;;;;5065927;28;20037;-61
2021/03/10 11:54:47;;;;;;;9.00;3.00;;;25.00;78.20;;;;;;5069079;28;20434;-65
2021/03/10 11:57:15;;;;;;;8.05;2.80;;;25.00;78.00;;;;;;5069391;28;20116;-58
2021/03/10 11:59:43;;;;;;;6.82;2.20;;;24.90;78.10;;;;;;5069744;28;20044;-66
2021/03/10 12:02:10;;;;;;;12.60;3.05;;;24.90;78.00;;;;;;5066029;28;20087;-54
2021/03/10 12:04:38;;;;;;;8.95;2.78;;;24.90;77.90;;;;;;5068984;28;20550;-60
2021/03/10 12:07:05;;;;;;;7.20;2.45;;;24.90;77.90;;;;;;5064888;28;20063;-63
2021/03/10 12:09:33;;;;;;;11.73;3.03;;;24.90;77.60;;;;;;5069378;28;20017;-53
2021/03/10 12:12:00;;;;;;;7.00;2.20;;;24.90;77.70;;;;;;5065180;28;20036;-58
2021/03/10 12:14:33;;;;;;;7.15;3.22;;;24.90;77.50;;;;;;5069818;28;20024;-52
2021/03/10 12:17:00;;;;;;;8.90;2.70;;;24.90;77.40;;;;;;5069732;28;20060;-60
2021/03/10 12:19:27;;;;;;;8.15;2.40;;;24.90;77.50;;;;;;5068892;28;20551;-59
2021/03/10 12:21:55;;;;;;;5.85;2.25;;;24.90;77.40;;;;;;5067271;28;20070;-57
2021/03/10 12:24:22;;;;;;;6.63;2.28;;;24.90;77.60;;;;;;5071745;28;20025;-55
2021/03/10 12:26:50;;;;;;;8.85;2.47;;;24.90;77.70;;;;;;5072209;28;20078;-58
2021/03/10 12:29:17;;;;;;;9.23;2.83;;;24.90;77.80;;;;;;5072168;28;20485;-59
2021/03/10 12:31:45;;;;;;;7.95;2.38;;;24.80;77.80;;;;;;5071644;28;20109;-56
2021/03/10 12:34:13;;;;;;;8.00;2.40;;;24.80;77.90;;;;;;5070619;28;20032;-56
2021/03/10 12:36:40;;;;;;;6.00;2.53;;;24.80;77.60;;;;;;5071906;28;20020;-62
2021/03/10 12:39:08;;;;;;;11.18;2.72;;;24.80;77.90;;;;;;5072186;28;20070;-58
2021/03/10 12:41:35;;;;;;;6.85;2.15;;;24.70;77.90;;;;;;5071964;28;20047;-52
2021/03/10 12:44:03;;;;;;;5.85;2.10;;;24.70;78.00;;;;;;5071951;28;20055;-62
2021/03/10 12:46:31;;;;;;;5.78;2.30;;;24.70;77.90;;;;;;5071587;28;20043;-55
2021/03/10 12:48:59;;;;;;;8.48;2.13;;;24.70;78.00;;;;;;5070995;28;20032;-53
2021/03/10 12:51:27;;;;;;;7.00;2.65;;;24.70;77.90;;;;;;5071640;28;20028;-57
2021/03/10 12:53:54;;;;;;;6.90;2.70;;;24.70;77.90;;;;;;5071656;28;20060;-61